Time;durP1;ratioP1;P1;durP2;ratioP2;P2;SDS_P1;SDS_P2;PMS_P1;PMS_P2;Temp;Humidity;BMP_temperature;BMP_pressure;BME280_temperature;BME280_humidity;BME280_pressure;Samples;Min_cycle;Max_cycle;Signal;HPM_P1;HPM_P2
2024/04/19 00:02:18;;;;;;;1.70;0.77;;;;;;;3.84;41.59;92460.91;5418854;26;20018;-77
2024/04/19 00:04:44;;;;;;;1.13;0.70;;;;;;;3.70;44.53;92457.94;5449857;26;20005;-77
2024/04/19 00:07:24;;;;;;;1.75;0.88;;;;;;;3.67;43.23;92458.41;5447334;26;19995;-77
2024/04/19 00:09:50;;;;;;;0.77;0.77;;;;;;;3.73;41.27;92452.25;5449749;26;19999;-77
2024/04/19 00:12:17;;;;;;;1.05;0.70;;;;;;;3.68;41.17;92457.41;5449368;26;20010;-77
2024/04/19 00:14:43;;;;;;;1.00;0.80;;;;;;;3.64;43.72;92464.84;5449407;26;20006;-77
2024/04/19 00:17:09;;;;;;;0.70;0.70;;;;;;;3.58;42.78;92458.09;5448883;26;20007;-76
2024/04/19 00:19:35;;;;;;;0.95;0.80;;;;;;;3.54;42.52;92455.19;5449002;26;20014;-76
2024/04/19 00:22:00;;;;;;;1.05;0.80;;;;;;;3.55;42.55;92453.38;5449085;26;20030;-77
2024/04/19 00:24:26;;;;;;;1.17;0.73;;;;;;;3.69;39.85;92446.00;5449332;26;20484;-76
2024/04/19 00:26:56;;;;;;;0.70;0.70;;;;;;;3.71;41.54;92454.31;5448884;26;20072;-76
2024/04/19 00:29:51;;;;;;;3.53;0.82;;;;;;;3.65;41.72;92447.53;5440591;26;20398;-76
2024/04/19 00:32:17;;;;;;;1.15;0.80;;;;;;;3.53;42.80;92448.47;5449140;26;20010;-76
2024/04/19 00:34:42;;;;;;;1.10;0.88;;;;;;;3.45;43.35;92445.53;5448834;26;19998;-77
2024/04/19 00:37:09;;;;;;;0.68;0.60;;;;;;;3.37;43.01;92438.97;5449705;26;20327;-76
2024/04/19 00:39:34;;;;;;;0.93;0.90;;;;;;;3.31;44.49;92437.31;5448470;26;20010;-76
2024/04/19 00:42:00;;;;;;;0.70;0.70;;;;;;;3.24;44.81;92434.16;5449120;26;19999;-77
2024/04/19 00:44:30;;;;;;;0.75;0.70;;;;;;;3.23;43.49;92430.00;5448853;26;20003;-77
2024/04/19 00:46:57;;;;;;;1.23;0.90;;;;;;;3.22;43.32;92434.41;5446701;26;20002;-77
2024/04/19 00:49:30;;;;;;;0.82;0.80;;;;;;;3.24;43.94;92434.97;5447127;26;20316;-77
2024/04/19 00:51:57;;;;;;;1.10;0.82;;;;;;;3.24;43.21;92426.38;5446675;26;20042;-76
2024/04/19 00:54:24;;;;;;;0.70;0.70;;;;;;;3.34;39.86;92435.06;5434349;26;20535;-76
2024/04/19 00:56:50;;;;;;;0.80;0.80;;;;;;;3.42;40.45;92433.06;5410991;26;20010;-76
2024/04/19 00:59:16;;;;;;;0.90;0.85;;;;;;;3.42;40.58;92436.41;5463857;26;20003;-76
2024/04/19 01:01:43;;;;;;;1.58;1.00;;;;;;;3.64;39.16;92433.03;5445106;26;20009;-77
2024/04/19 01:04:09;;;;;;;1.08;0.75;;;;;;;3.67;39.97;92427.34;5466810;26;20002;-76
2024/04/19 01:06:36;;;;;;;0.70;0.70;;;;;;;3.77;39.18;92427.44;5482764;26;20002;-77
2024/04/19 01:09:03;;;;;;;0.70;0.70;;;;;;;3.80;39.50;92432.13;5485287;26;20074;-77
2024/04/19 01:11:29;;;;;;;0.77;0.70;;;;;;;3.82;39.50;92424.91;5484505;26;20002;-77
2024/04/19 01:13:55;;;;;;;0.70;0.70;;;;;;;3.87;39.55;92431.94;5484335;26;20002;-77
2024/04/19 01:16:36;;;;;;;0.82;0.68;;;;;;;3.84;39.70;92433.19;5423864;26;20003;-77
2024/04/19 01:19:07;;;;;;;1.23;0.90;;;;;;;3.92;39.31;92429.41;5449797;26;20006;-77
2024/04/19 01:21:35;;;;;;;1.05;0.90;;;;;;;3.88;39.56;92428.31;5448900;26;19995;-76
2024/04/19 01:24:44;;;;;;;0.70;0.68;;;;;;;3.96;38.83;92438.22;5446610;26;20117;-76
2024/04/19 01:27:10;;;;;;;0.80;0.80;;;;;;;3.96;39.04;92446.78;5447926;26;20009;-77
2024/04/19 01:29:39;;;;;;;1.40;0.80;;;;;;;3.99;39.17;92440.34;5447779;26;20427;-77
2024/04/19 01:32:09;;;;;;;1.00;0.80;;;;;;;4.01;39.33;92453.03;5446186;26;19994;-77
2024/04/19 01:34:34;;;;;;;0.65;0.60;;;;;;;3.96;39.65;92451.97;5445677;26;20009;-77
2024/04/19 01:37:00;;;;;;;1.73;0.70;;;;;;;3.97;39.87;92450.16;5447518;26;20002;-77
2024/04/19 01:39:27;;;;;;;2.65;0.88;;;;;;;3.94;40.29;92448.84;5448411;26;19995;-77
2024/04/19 01:42:07;;;;;;;1.02;0.90;;;;;;;3.91;39.78;92448.53;5446093;26;20497;-77
2024/04/19 01:44:33;;;;;;;0.90;0.80;;;;;;;3.89;40.00;92448.78;5447656;26;20014;-77
2024/04/19 01:47:09;;;;;;;0.70;0.70;;;;;;;3.83;40.25;92451.56;5447888;26;20003;-77
2024/04/19 01:49:37;;;;;;;0.80;0.70;;;;;;;3.91;38.87;92440.78;5447612;26;20011;-77
2024/04/19 01:52:05;;;;;;;0.80;0.80;;;;;;;3.94;39.19;92448.03;5449599;26;20010;-77
2024/04/19 01:54:42;;;;;;;1.50;0.70;;;;;;;3.90;39.19;92437.41;5486463;26;20002;-77
2024/04/19 01:57:08;;;;;;;1.25;0.90;;;;;;;3.90;38.79;92439.22;5468106;26;20006;-77
2024/04/19 01:59:39;;;;;;;0.80;0.70;;;;;;;3.91;38.98;92433.78;5450906;26;20144;-76
2024/04/19 02:02:05;;;;;;;0.80;0.80;;;;;;;3.85;38.86;92429.59;5449422;26;19999;-76
2024/04/19 02:04:32;;;;;;;1.00;0.90;;;;;;;3.88;39.54;92428.31;5450244;26;20072;-76
2024/04/19 02:06:58;;;;;;;0.70;0.70;;;;;;;3.82;39.67;92426.72;5449945;26;20442;-76
2024/04/19 02:09:35;;;;;;;0.60;0.60;;;;;;;3.78;39.50;92420.47;5450086;26;20031;-76
2024/04/19 02:12:03;;;;;;;0.80;0.80;;;;;;;3.78;39.37;92433.41;5449886;26;20454;-77
2024/04/19 02:14:32;;;;;;;0.82;0.70;;;;;;;3.76;39.83;92431.06;5450180;26;20121;-78
2024/04/19 02:17:01;;;;;;;0.98;0.80;;;;;;;3.87;39.07;92432.72;5449661;26;20030;-78
2024/04/19 02:19:29;;;;;;;1.00;0.80;;;;;;;3.89;38.90;92441.00;5470926;26;20013;-76
2024/04/19 02:21:55;;;;;;;0.55;0.55;;;;;;;3.90;39.14;92429.63;5484332;26;19994;-76
2024/04/19 02:24:21;;;;;;;0.75;0.70;;;;;;;4.04;38.34;92431.81;5484213;26;20312;-76
2024/04/19 02:26:52;;;;;;;0.80;0.80;;;;;;;4.00;38.85;92439.28;5486172;26;20498;-76
2024/04/19 02:32:03;;;;;;;0.60;0.60;;;;;;;4.00;38.55;92435.94;5474361;26;19995;-76
2024/04/19 02:34:30;;;;;;;0.73;0.73;;;;;;;4.06;38.67;92450.50;5450707;26;20002;-76
2024/04/19 02:36:55;;;;;;;0.65;0.63;;;;;;;4.04;37.91;92444.78;5463764;26;20003;-76
2024/04/19 02:39:24;;;;;;;1.23;0.75;;;;;;;4.00;38.36;92441.09;5449766;26;20006;-75
2024/04/19 02:41:49;;;;;;;1.85;0.60;;;;;;;4.03;38.69;92440.59;5464644;26;20018;-76
2024/04/19 02:44:15;;;;;;;0.60;0.60;;;;;;;3.99;38.65;92439.56;5449407;26;20010;-76
2024/04/19 02:46:41;;;;;;;0.70;0.70;;;;;;;4.00;38.25;92426.34;5447578;26;20465;-76
2024/04/19 02:49:06;;;;;;;1.50;0.90;;;;;;;3.95;38.26;92429.69;5448741;26;19999;-76
2024/04/19 02:51:32;;;;;;;1.70;0.80;;;;;;;4.04;38.64;92426.66;5457580;26;19998;-76
2024/04/19 02:53:58;;;;;;;0.70;0.70;;;;;;;4.00;38.56;92421.16;5483356;26;20071;-76
2024/04/19 02:56:29;;;;;;;0.50;0.50;;;;;;;3.97;39.13;92417.25;5485578;26;19998;-76
2024/04/19 02:58:55;;;;;;;1.15;0.90;;;;;;;3.92;39.11;92422.41;5485270;26;20013;-76
2024/04/19 03:01:20;;;;;;;2.00;0.80;;;;;;;3.88;39.05;92426.50;5485988;26;20030;-76
2024/04/19 03:03:46;;;;;;;0.60;0.60;;;;;;;4.08;38.42;92425.13;5484642;26;20551;-76
2024/04/19 03:06:12;;;;;;;0.60;0.60;;;;;;;4.05;38.75;92428.19;5485829;26;20078;-76
2024/04/19 03:08:40;;;;;;;0.60;0.60;;;;;;;4.02;38.46;92418.34;5485946;26;20002;-76
2024/04/19 03:11:11;;;;;;;2.63;0.80;;;;;;;4.00;38.69;92431.53;5485230;26;19998;-76
2024/04/19 03:13:37;;;;;;;0.88;0.60;;;;;;;4.06;38.94;92429.78;5452929;26;20394;-76
2024/04/19 03:16:07;;;;;;;0.70;0.70;;;;;;;4.06;38.65;92429.78;5448894;26;20411;-77
2024/04/19 03:18:40;;;;;;;0.70;0.70;;;;;;;4.03;38.25;92420.69;5448793;26;20024;-76
2024/04/19 03:21:05;;;;;;;0.60;0.60;;;;;;;4.03;38.47;92422.47;5448690;26;20066;-75
2024/04/19 03:23:31;;;;;;;3.78;0.80;;;;;;;3.99;38.70;92434.38;5447063;26;20625;-76
2024/04/19 03:26:00;;;;;;;0.75;0.73;;;;;;;3.93;38.64;92426.53;5447629;26;20013;-76
2024/04/19 03:28:27;;;;;;;0.80;0.80;;;;;;;3.93;38.71;92413.59;5447366;26;20089;-76
2024/04/19 03:30:54;;;;;;;0.77;0.75;;;;;;;3.89;38.93;92415.13;5448973;26;19999;-76
2024/04/19 03:33:19;;;;;;;1.33;0.90;;;;;;;3.85;39.63;92405.50;5447859;26;20047;-76
2024/04/19 03:35:46;;;;;;;0.65;0.65;;;;;;;3.93;39.35;92403.25;5460295;26;20125;-76
2024/04/19 03:38:14;;;;;;;1.38;0.70;;;;;;;3.87;39.11;92411.22;5483571;26;19994;-76
2024/04/19 03:40:59;;;;;;;2.67;0.95;;;;;;;3.89;38.84;92409.16;5485161;26;19998;-76
2024/04/19 03:43:32;;;;;;;1.38;0.80;;;;;;;3.87;39.26;92404.25;5483819;26;20001;-76
2024/04/19 03:46:02;;;;;;;1.35;0.75;;;;;;;3.92;38.88;92404.28;5485541;26;20005;-76
2024/04/19 03:48:28;;;;;;;0.90;0.90;;;;;;;3.94;39.40;92388.47;5484804;26;19994;-76
2024/04/19 03:50:59;;;;;;;0.68;0.68;;;;;;;3.92;39.23;92388.75;5446566;26;20015;-76
2024/04/19 03:53:24;;;;;;;0.68;0.63;;;;;;;3.90;39.25;92382.25;5442270;26;20009;-76
2024/04/19 03:55:52;;;;;;;1.08;0.90;;;;;;;3.83;39.21;92389.41;5412546;26;20000;-76
2024/04/19 03:58:17;;;;;;;0.75;0.75;;;;;;;3.81;39.96;92386.31;5410231;26;20068;-76
2024/04/19 04:00:43;;;;;;;0.75;0.75;;;;;;;3.78;39.85;92386.78;5412889;26;20000;-75
2024/04/19 04:03:09;;;;;;;0.82;0.80;;;;;;;3.73;40.23;92390.13;5417303;26;20366;-76
2024/04/19 04:05:38;;;;;;;0.98;0.75;;;;;;;3.77;39.85;92386.03;5441094;26;20003;-75
2024/04/19 04:08:04;;;;;;;0.80;0.80;;;;;;;3.71;39.44;92372.25;5410587;26;20086;-76
2024/04/19 04:10:30;;;;;;;0.73;0.73;;;;;;;3.74;39.76;92376.94;5410764;26;20043;-76
2024/04/19 04:12:56;;;;;;;0.85;0.75;;;;;;;3.73;40.16;92384.94;5410559;26;20015;-75
2024/04/19 04:15:22;;;;;;;0.95;0.80;;;;;;;3.73;40.01;92380.53;5380714;26;19999;-76
2024/04/19 04:17:48;;;;;;;1.02;0.95;;;;;;;3.73;39.89;92377.19;5411855;26;20003;-76
2024/04/19 04:20:14;;;;;;;0.85;0.80;;;;;;;3.79;39.51;92383.97;5411459;26;20368;-76
2024/04/19 04:22:39;;;;;;;1.30;0.70;;;;;;;3.76;40.17;92379.28;5422260;26;20007;-76
2024/04/19 04:25:05;;;;;;;1.25;0.90;;;;;;;3.84;39.48;92384.00;5412062;26;20414;-76
2024/04/19 04:27:31;;;;;;;0.82;0.60;;;;;;;3.84;39.78;92389.19;5411830;26;19999;-75
2024/04/19 04:29:57;;;;;;;0.60;0.60;;;;;;;3.79;39.56;92383.19;5405968;26;20447;-77
2024/04/19 04:32:22;;;;;;;0.85;0.80;;;;;;;3.76;39.85;92387.06;5435098;26;20400;-77
2024/04/19 04:34:51;;;;;;;1.25;0.90;;;;;;;3.72;39.99;92393.75;5405074;26;20466;-76
2024/04/19 04:37:17;;;;;;;0.80;0.80;;;;;;;3.61;40.17;92371.41;5408144;26;19996;-76
2024/04/19 04:39:42;;;;;;;1.73;1.00;;;;;;;3.70;41.47;92391.41;5410720;26;20007;-77
2024/04/19 04:42:08;;;;;;;0.80;0.80;;;;;;;3.69;41.87;92389.84;5408359;26;20024;-77
2024/04/19 04:44:34;;;;;;;0.80;0.80;;;;;;;3.68;42.26;92388.28;5408564;26;20003;-77
2024/04/19 04:46:59;;;;;;;0.80;0.80;;;;;;;3.71;41.94;92392.19;5409495;26;20006;-76
2024/04/19 04:49:25;;;;;;;0.88;0.75;;;;;;;3.72;42.37;92394.53;5435594;26;20438;-75
2024/04/19 04:51:50;;;;;;;0.57;0.57;;;;;;;3.76;42.00;92392.25;5484223;26;20430;-76
2024/04/19 04:54:16;;;;;;;1.23;0.80;;;;;;;3.78;41.85;92397.16;5482651;26;20470;-77
2024/04/19 04:56:42;;;;;;;1.02;0.82;;;;;;;3.79;41.44;92390.97;5488495;26;20120;-76
2024/04/19 04:59:07;;;;;;;0.93;0.70;;;;;;;3.84;41.31;92391.00;5482842;26;20002;-76
2024/04/19 05:01:37;;;;;;;1.05;0.82;;;;;;;3.87;40.56;92396.47;5484014;26;20013;-77
2024/04/19 05:04:02;;;;;;;0.93;0.70;;;;;;;3.91;39.71;92397.53;5450438;26;20024;-76
2024/04/19 05:06:31;;;;;;;0.90;0.70;;;;;;;3.94;40.08;92394.47;5485815;26;20066;-76
2024/04/19 05:08:56;;;;;;;0.80;0.80;;;;;;;3.97;40.07;92400.94;5487117;26;20002;-77
2024/04/19 05:11:26;;;;;;;1.13;0.80;;;;;;;3.99;41.46;92392.94;5453539;26;20447;-76
2024/04/19 05:13:52;;;;;;;3.88;1.00;;;;;;;4.01;41.63;92390.84;5487067;26;20010;-77
2024/04/19 05:16:21;;;;;;;2.30;0.90;;;;;;;4.04;41.65;92395.56;5456326;26;20070;-76
2024/04/19 05:18:47;;;;;;;0.75;0.75;;;;;;;4.06;42.65;92398.69;5488716;26;20053;-77
2024/04/19 05:21:13;;;;;;;0.68;0.68;;;;;;;4.10;42.47;92402.34;5456338;26;20010;-76
2024/04/19 05:24:05;;;;;;;3.08;1.00;;;;;;;4.17;41.19;92395.91;5454917;26;20074;-76
2024/04/19 05:26:30;;;;;;;0.70;0.70;;;;;;;4.29;41.44;92402.72;5487232;26;20002;-77
2024/04/19 05:29:09;;;;;;;0.88;0.80;;;;;;;4.35;41.68;92402.50;5491289;26;19998;-76
2024/04/19 05:31:35;;;;;;;1.23;0.90;;;;;;;4.45;41.32;92406.19;5492580;26;20430;-77
2024/04/19 05:34:01;;;;;;;0.77;0.77;;;;;;;4.53;41.46;92403.91;5460231;26;20108;-77
2024/04/19 05:37:09;;;;;;;1.75;0.98;;;;;;;4.68;40.29;92411.00;5459080;26;20358;-77
2024/04/19 05:39:34;;;;;;;0.93;0.88;;;;;;;4.77;39.85;92419.88;5491255;26;20002;-78
2024/04/19 05:42:11;;;;;;;1.73;0.82;;;;;;;4.87;38.71;92418.38;5492135;26;20006;-77
2024/04/19 05:44:37;;;;;;;1.30;0.95;;;;;;;4.93;40.19;92412.94;5491762;26;20407;-77
2024/04/19 05:47:13;;;;;;;1.20;1.00;;;;;;;5.00;40.35;92423.09;5492018;26;20159;-77
2024/04/19 05:49:39;;;;;;;0.63;0.55;;;;;;;5.21;37.21;92422.13;5491591;26;19999;-77
2024/04/19 05:52:05;;;;;;;1.48;0.90;;;;;;;5.25;36.56;92424.25;5491391;26;20055;-77
2024/04/19 05:54:30;;;;;;;2.95;0.90;;;;;;;5.19;37.23;92429.38;5460013;26;19998;-77
2024/04/19 05:56:56;;;;;;;1.40;0.77;;;;;;;5.18;36.72;92425.25;5492460;26;20005;-77
2024/04/19 05:59:25;;;;;;;0.70;0.70;;;;;;;5.14;37.60;92420.81;5459808;26;19994;-77
2024/04/19 06:01:50;;;;;;;0.60;0.60;;;;;;;5.13;39.99;92417.41;5493097;26;20446;-77
2024/04/19 06:04:36;;;;;;;1.95;0.90;;;;;;;5.14;40.50;92415.63;5444976;26;20364;-77
2024/04/19 06:07:42;;;;;;;1.30;0.75;;;;;;;5.17;41.42;92415.88;5493105;26;19994;-77
2024/04/19 06:10:24;;;;;;;1.15;0.73;;;;;;;5.18;41.55;92420.06;5491899;26;19994;-78
2024/04/19 06:12:50;;;;;;;3.75;0.95;;;;;;;5.21;41.16;92409.16;5492218;26;20009;-78
2024/04/19 06:19:09;;;;;;;0.90;0.80;;;;;;;5.30;41.47;92406.84;5492221;26;20006;-77
2024/04/19 06:22:28;;;;;;;0.73;0.70;;;;;;;5.39;40.98;92407.16;5492301;26;20006;-77
2024/04/19 06:24:56;;;;;;;1.08;0.70;;;;;;;5.40;41.39;92408.69;5459591;26;20002;-77
2024/04/19 06:27:22;;;;;;;0.77;0.70;;;;;;;5.47;41.69;92411.03;5491645;26;20010;-78
2024/04/19 06:29:49;;;;;;;0.95;0.80;;;;;;;5.53;42.08;92405.59;5458655;26;20037;-77
2024/04/19 06:32:15;;;;;;;0.80;0.77;;;;;;;6.31;40.75;92412.47;5493098;26;19994;-78
2024/04/19 06:34:41;;;;;;;0.70;0.70;;;;;;;7.18;38.97;92406.28;5492574;26;20026;-78
2024/04/19 06:37:06;;;;;;;0.98;0.82;;;;;;;8.68;37.30;92403.22;5495456;26;19998;-79
2024/04/19 06:39:32;;;;;;;1.00;0.80;;;;;;;9.82;33.68;92405.28;5494277;26;19998;-79
2024/04/19 06:41:57;;;;;;;1.23;0.90;;;;;;;10.61;30.66;92408.81;5465769;26;19994;-79
2024/04/19 06:44:24;;;;;;;1.27;0.93;;;;;;;11.64;29.43;92404.28;5497300;26;20172;-80
2024/04/19 06:46:49;;;;;;;0.60;0.60;;;;;;;12.75;28.50;92406.56;5508141;26;20000;-79
2024/04/19 06:49:15;;;;;;;0.95;0.70;;;;;;;13.45;28.28;92395.28;5491484;26;19995;-80
2024/04/19 06:51:41;;;;;;;1.73;1.08;;;;;;;14.21;25.39;92395.97;5488902;26;20002;-78
2024/04/19 06:54:06;;;;;;;0.63;0.63;;;;;;;13.14;26.24;92395.28;5452257;26;19994;-77
2024/04/19 06:56:32;;;;;;;0.50;0.50;;;;;;;13.20;28.09;92394.09;5421978;26;20006;-76
2024/04/19 06:58:57;;;;;;;2.58;1.42;;;;;;;12.31;29.07;92389.75;5487978;26;20013;-77
2024/04/19 07:01:23;;;;;;;2.42;1.20;;;;;;;11.84;31.83;92392.59;5478756;26;20047;-77
2024/04/19 07:03:52;;;;;;;1.67;1.00;;;;;;;11.36;30.01;92388.59;5449824;26;20004;-77
2024/04/19 07:06:18;;;;;;;1.20;0.80;;;;;;;10.91;31.43;92391.03;5451793;26;20476;-78
2024/04/19 07:08:43;;;;;;;4.25;1.65;;;;;;;10.50;32.67;92391.75;5484936;26;20022;-78
2024/04/19 07:11:09;;;;;;;1.08;0.90;;;;;;;9.92;34.18;92389.47;5455401;26;20369;-77
2024/04/19 07:13:36;;;;;;;1.15;0.80;;;;;;;9.69;36.17;92386.66;5451081;26;19998;-78
2024/04/19 07:16:02;;;;;;;0.70;0.70;;;;;;;9.24;33.48;92388.78;5453362;26;19995;-77
2024/04/19 07:18:27;;;;;;;1.73;0.93;;;;;;;9.23;35.30;92399.50;5481130;26;19999;-78
2024/04/19 07:20:54;;;;;;;1.63;0.73;;;;;;;9.24;35.19;92390.63;5424865;26;20002;-77
2024/04/19 07:23:23;;;;;;;0.80;0.65;;;;;;;9.19;36.25;92396.69;5485944;26;20490;-77
2024/04/19 07:25:49;;;;;;;1.08;0.75;;;;;;;9.23;35.54;92394.28;5485707;26;20066;-78
2024/04/19 07:28:16;;;;;;;0.90;0.77;;;;;;;9.64;34.86;92383.34;5487693;26;20010;-77
2024/04/19 07:30:43;;;;;;;2.30;1.10;;;;;;;9.50;36.60;92393.69;5454821;26;20002;-78
2024/04/19 07:33:08;;;;;;;3.10;0.75;;;;;;;9.03;35.94;92390.06;5485537;26;20042;-78
2024/04/19 07:35:35;;;;;;;1.00;0.60;;;;;;;9.36;36.18;92383.16;5483455;26;20410;-77
2024/04/19 07:38:01;;;;;;;2.35;1.00;;;;;;;9.73;34.54;92374.56;5488085;26;20002;-77
2024/04/19 07:40:27;;;;;;;1.33;0.95;;;;;;;9.70;35.73;92376.97;5487586;26;20009;-77
2024/04/19 07:42:52;;;;;;;0.88;0.85;;;;;;;9.67;34.89;92383.53;5472134;26;19998;-78
2024/04/19 07:45:23;;;;;;;0.65;0.65;;;;;;;9.51;36.29;92375.13;5488018;26;20002;-77
2024/04/19 07:47:55;;;;;;;1.25;1.00;;;;;;;9.65;34.12;92380.41;5487265;26;20025;-78
2024/04/19 07:50:20;;;;;;;0.80;0.80;;;;;;;9.51;34.03;92353.44;5486321;26;20411;-78
2024/04/19 07:52:47;;;;;;;1.27;0.80;;;;;;;9.86;33.26;92370.47;5485468;26;20536;-78
2024/04/19 07:55:14;;;;;;;1.63;1.00;;;;;;;10.10;33.00;92374.81;5487834;26;19998;-77
2024/04/19 07:57:41;;;;;;;0.82;0.75;;;;;;;9.59;32.06;92373.69;5455040;26;20002;-78
2024/04/19 08:00:15;;;;;;;2.70;1.00;;;;;;;10.04;31.44;92371.50;5486862;26;19995;-78
2024/04/19 08:02:40;;;;;;;2.17;0.82;;;;;;;10.19;34.01;92373.88;5487877;26;20454;-79
2024/04/19 08:05:06;;;;;;;1.38;0.95;;;;;;;10.01;34.97;92387.75;5457054;26;20041;-77
2024/04/19 08:07:31;;;;;;;1.45;0.95;;;;;;;10.02;34.01;92373.63;5454000;26;20014;-78
2024/04/19 08:09:57;;;;;;;2.00;1.10;;;;;;;9.70;31.64;92384.81;5484944;26;20010;-78
2024/04/19 08:12:23;;;;;;;1.00;0.85;;;;;;;10.06;33.78;92366.75;5482868;26;20028;-78
2024/04/19 08:14:48;;;;;;;2.40;1.10;;;;;;;9.99;35.37;92374.19;5487056;26;20006;-78
2024/04/19 08:17:14;;;;;;;1.45;0.90;;;;;;;10.05;36.54;92375.69;5456544;26;20078;-78
2024/04/19 08:19:40;;;;;;;0.70;0.70;;;;;;;10.27;33.84;92375.06;5455989;26;19998;-78
2024/04/19 08:22:05;;;;;;;0.80;0.80;;;;;;;10.50;32.45;92378.66;5488556;26;20012;-78
2024/04/19 08:24:31;;;;;;;1.15;0.80;;;;;;;10.92;33.85;92373.47;5456193;26;20016;-78
2024/04/19 08:26:56;;;;;;;0.98;0.88;;;;;;;10.90;33.91;92367.72;5454035;26;20030;-78
2024/04/19 08:29:23;;;;;;;3.25;0.95;;;;;;;10.80;33.32;92366.09;5487620;26;20187;-78
2024/04/19 08:31:50;;;;;;;2.30;0.93;;;;;;;10.58;35.25;92362.28;5487288;26;20009;-78
2024/04/19 08:34:15;;;;;;;1.35;0.80;;;;;;;10.47;34.10;92368.78;5487302;26;20047;-78
2024/04/19 08:36:41;;;;;;;1.00;0.80;;;;;;;10.13;35.60;92367.19;5454656;26;20005;-78
2024/04/19 08:39:08;;;;;;;1.25;0.88;;;;;;;10.42;35.41;92360.97;5488528;26;20011;-78
2024/04/19 08:41:33;;;;;;;1.13;0.85;;;;;;;10.40;34.70;92360.50;5430927;26;20493;-78
2024/04/19 08:44:00;;;;;;;1.70;0.95;;;;;;;10.53;33.89;92361.59;5484144;26;20012;-78
2024/04/19 08:46:32;;;;;;;1.48;0.93;;;;;;;10.50;34.21;92357.72;5486883;26;20017;-78
2024/04/19 08:49:07;;;;;;;1.15;0.80;;;;;;;10.28;33.42;92344.47;5471611;26;20013;-77
2024/04/19 08:51:35;;;;;;;0.80;0.80;;;;;;;10.15;33.08;92349.34;5485688;26;20005;-78
2024/04/19 08:54:01;;;;;;;0.73;0.73;;;;;;;10.30;32.70;92352.81;5486378;26;20005;-77
2024/04/19 08:56:28;;;;;;;2.92;0.73;;;;;;;10.46;32.30;92350.72;5469771;26;20494;-77
2024/04/19 08:58:55;;;;;;;1.13;0.75;;;;;;;10.58;32.35;92354.44;5452074;26;20006;-77
2024/04/19 09:01:21;;;;;;;1.05;0.90;;;;;;;10.62;32.71;92344.94;5451949;26;20012;-78
2024/04/19 09:03:47;;;;;;;1.35;1.05;;;;;;;10.76;31.54;92354.63;5485220;26;20002;-78
2024/04/19 09:06:13;;;;;;;1.20;0.95;;;;;;;10.90;30.96;92344.16;5487455;26;20322;-78
2024/04/19 09:08:40;;;;;;;1.55;0.90;;;;;;;11.05;30.15;92341.25;5486796;26;20013;-77
2024/04/19 09:11:12;;;;;;;1.05;0.80;;;;;;;11.29;32.41;92346.28;5487283;26;19998;-78
2024/04/19 09:13:38;;;;;;;2.25;1.30;;;;;;;11.10;29.25;92337.75;5481731;26;20009;-77
2024/04/19 09:16:04;;;;;;;0.70;0.70;;;;;;;11.02;31.39;92353.09;5481250;26;19999;-77
2024/04/19 09:18:30;;;;;;;2.10;1.10;;;;;;;11.07;30.49;92331.28;5480129;26;19995;-77
2024/04/19 09:20:56;;;;;;;7.28;1.10;;;;;;;11.30;29.06;92342.59;5482136;26;20447;-77
2024/04/19 09:23:22;;;;;;;0.80;0.77;;;;;;;11.17;29.23;92343.41;5449770;26;20437;-78
2024/04/19 09:25:55;;;;;;;0.70;0.70;;;;;;;11.52;29.93;92343.72;5481843;26;20040;-78
2024/04/19 09:28:22;;;;;;;1.15;0.80;;;;;;;11.62;30.63;92346.91;5481933;26;20020;-77
2024/04/19 09:30:52;;;;;;;0.82;0.70;;;;;;;11.95;28.78;92332.84;5450518;26;20013;-78
2024/04/19 09:33:19;;;;;;;4.00;0.90;;;;;;;12.16;27.61;92343.63;5482397;26;19994;-77
2024/04/19 09:35:45;;;;;;;1.50;0.70;;;;;;;12.23;27.70;92336.91;5448929;26;20006;-77
2024/04/19 09:38:13;;;;;;;2.53;0.90;;;;;;;12.16;26.15;92339.19;5449638;26;20002;-77
2024/04/19 09:40:39;;;;;;;0.73;0.68;;;;;;;12.19;27.38;92329.94;5445436;26;20097;-77
2024/04/19 09:43:08;;;;;;;0.68;0.68;;;;;;;12.18;26.63;92329.16;5472558;26;19998;-78
2024/04/19 09:45:43;;;;;;;1.35;0.80;;;;;;;12.12;26.08;92338.22;5494938;26;19994;-77
2024/04/19 09:48:15;;;;;;;1.15;0.80;;;;;;;11.98;25.86;92332.25;5470037;26;19994;-78
2024/04/19 09:50:45;;;;;;;1.70;0.75;;;;;;;12.22;25.41;92324.84;5485442;26;20010;-77
2024/04/19 09:53:17;;;;;;;1.17;0.85;;;;;;;12.35;25.94;92327.72;5480833;26;20013;-81
2024/04/19 09:56:06;;;;;;;0.88;0.82;;;;;;;12.28;25.33;92328.91;5481684;26;20450;-78
2024/04/19 09:58:33;;;;;;;1.10;0.80;;;;;;;12.28;24.54;92315.78;5471000;26;20002;-81
2024/04/19 10:01:00;;;;;;;1.65;1.02;;;;;;;12.39;25.63;92307.66;5482550;26;19995;-79
2024/04/19 10:03:28;;;;;;;1.10;1.00;;;;;;;12.65;25.48;92305.94;5498231;26;19998;-79
2024/04/19 10:05:54;;;;;;;1.42;0.80;;;;;;;12.53;24.00;92313.59;5495881;26;20664;-78
2024/04/19 10:08:26;;;;;;;3.42;0.77;;;;;;;12.35;23.97;92307.47;5489864;26;19998;-80
2024/04/19 10:10:53;;;;;;;1.40;0.70;;;;;;;12.35;23.17;92309.34;5490620;26;20428;-77
2024/04/19 10:13:19;;;;;;;1.38;0.80;;;;;;;12.00;23.53;92306.50;5491591;26;20032;-81
2024/04/19 10:15:46;;;;;;;1.55;0.93;;;;;;;11.90;23.61;92304.91;5490294;26;20552;-79
2024/04/19 10:18:13;;;;;;;0.73;0.60;;;;;;;11.85;22.58;92295.25;5488634;26;20010;-79
2024/04/19 10:20:41;;;;;;;0.85;0.80;;;;;;;11.78;22.72;92302.78;5461178;26;20013;-77
2024/04/19 10:23:10;;;;;;;3.65;0.80;;;;;;;12.17;25.37;92295.34;5496483;26;20016;-80
2024/04/19 10:25:37;;;;;;;0.75;0.68;;;;;;;12.14;21.88;92301.97;5491422;26;19999;-79
2024/04/19 10:28:07;;;;;;;1.33;0.90;;;;;;;12.13;23.44;92286.53;5495487;26;20023;-78
2024/04/19 10:30:33;;;;;;;1.40;1.00;;;;;;;12.38;22.88;92290.34;5495576;26;20548;-78
2024/04/19 10:32:58;;;;;;;0.70;0.70;;;;;;;11.97;22.29;92288.75;5496232;26;20047;-80
2024/04/19 10:35:24;;;;;;;0.60;0.60;;;;;;;12.14;22.39;92282.84;5497601;26;20440;-79
2024/04/19 10:37:50;;;;;;;0.70;0.70;;;;;;;12.27;24.01;92290.63;5449937;26;20003;-77
2024/04/19 10:40:16;;;;;;;0.90;0.80;;;;;;;12.31;23.47;92282.13;5442883;26;20039;-77
2024/04/19 10:42:42;;;;;;;5.47;0.80;;;;;;;12.55;21.95;92271.31;5475355;26;19995;-77
2024/04/19 10:45:14;;;;;;;1.65;0.98;;;;;;;12.53;23.39;92266.34;5471061;26;19998;-77
2024/04/19 10:47:43;;;;;;;0.98;0.70;;;;;;;12.42;23.83;92275.56;5490347;26;20008;-78
2024/04/19 10:50:09;;;;;;;1.20;0.73;;;;;;;12.40;23.69;92267.22;5489410;26;20009;-77
2024/04/19 10:52:36;;;;;;;1.15;1.00;;;;;;;12.60;23.43;92261.41;5489001;26;20070;-77
2024/04/19 10:55:03;;;;;;;2.10;0.93;;;;;;;12.82;23.21;92257.94;5489697;26;20051;-77
2024/04/19 10:57:32;;;;;;;1.10;0.80;;;;;;;12.51;24.20;92252.75;5487810;26;20343;-77
2024/04/19 10:59:57;;;;;;;1.27;0.90;;;;;;;12.64;23.76;92245.84;5478924;26;20437;-78
2024/04/19 11:02:26;;;;;;;1.33;0.80;;;;;;;12.82;23.13;92244.03;5467741;26;20446;-77
2024/04/19 11:04:52;;;;;;;0.43;0.43;;;;;;;12.69;22.03;92245.69;5488076;26;20061;-80
2024/04/19 11:07:21;;;;;;;0.73;0.73;;;;;;;12.41;21.27;92243.28;5430863;26;19998;-79
2024/04/19 11:09:48;;;;;;;1.30;0.80;;;;;;;12.37;22.28;92236.31;5490880;26;20009;-79
2024/04/19 11:12:15;;;;;;;1.33;0.80;;;;;;;12.46;23.40;92231.88;5484403;26;20055;-76
2024/04/19 11:14:41;;;;;;;1.30;0.90;;;;;;;12.63;23.77;92226.69;5482811;26;20410;-79
2024/04/19 11:17:07;;;;;;;0.70;0.65;;;;;;;12.65;25.01;92211.41;5462865;26;19994;-78
2024/04/19 11:19:34;;;;;;;0.85;0.70;;;;;;;12.61;24.52;92212.28;5506498;26;20020;-78
2024/04/19 11:22:00;;;;;;;1.80;0.85;;;;;;;12.98;23.42;92197.88;5513730;26;20025;-78
2024/04/19 11:24:26;;;;;;;0.77;0.68;;;;;;;12.85;23.21;92209.28;5502167;26;20378;-78
2024/04/19 11:26:53;;;;;;;2.42;0.90;;;;;;;12.85;24.01;92204.03;5498623;26;20006;-78
2024/04/19 11:29:20;;;;;;;0.98;0.77;;;;;;;12.89;23.57;92195.22;5472181;26;19994;-78
2024/04/19 11:31:47;;;;;;;1.90;0.77;;;;;;;12.63;23.41;92218.81;5504389;26;19995;-78
2024/04/19 11:34:13;;;;;;;0.70;0.68;;;;;;;12.88;22.20;92200.81;5461259;26;20014;-79
2024/04/19 11:36:43;;;;;;;1.20;0.98;;;;;;;13.13;23.56;92197.41;5514546;26;20039;-77
2024/04/19 11:39:11;;;;;;;1.90;0.90;;;;;;;12.96;24.10;92188.75;5502012;26;20018;-77
2024/04/19 11:41:38;;;;;;;0.55;0.55;;;;;;;13.19;23.28;92192.78;5474109;26;20001;-79
2024/04/19 11:44:05;;;;;;;0.82;0.70;;;;;;;13.22;23.35;92181.66;5521098;26;20290;-78
2024/04/19 11:46:31;;;;;;;2.15;0.80;;;;;;;13.45;23.75;92182.28;5470576;26;20002;-79
2024/04/19 11:49:04;;;;;;;1.15;0.80;;;;;;;13.28;22.90;92184.91;5478176;26;20462;-78
2024/04/19 11:51:31;;;;;;;1.33;0.82;;;;;;;13.52;23.44;92179.97;5482304;26;20100;-78